createdAt,value
2017-08-22T00:01:47.728Z,66.80
2017-08-22T00:04:15.375Z,66.80
2017-08-22T00:06:42.967Z,67.00
2017-08-22T00:09:10.614Z,67.10
2017-08-22T00:11:38.226Z,67.30
2017-08-22T00:14:05.885Z,67.40
2017-08-22T00:16:33.499Z,69.00
2017-08-22T00:19:01.153Z,68.70
2017-08-22T00:21:28.785Z,68.90
2017-08-22T00:23:56.405Z,68.30
2017-08-22T00:26:24.058Z,68.30
2017-08-22T00:28:51.680Z,68.40
2017-08-22T00:31:19.309Z,69.40
2017-08-22T00:33:46.901Z,69.10
2017-08-22T00:36:14.545Z,69.40
2017-08-22T00:38:42.148Z,69.50
2017-08-22T00:41:09.797Z,69.80
2017-08-22T00:43:37.383Z,70.20
2017-08-22T00:46:05.037Z,70.60
2017-08-22T00:48:32.638Z,70.60
2017-08-22T00:51:00.266Z,69.80
2017-08-22T00:53:27.869Z,69.80
2017-08-22T00:55:55.507Z,69.80
2017-08-22T00:58:23.121Z,69.20
2017-08-22T01:00:50.664Z,69.30
2017-08-22T01:03:18.256Z,69.00
2017-08-22T01:05:45.887Z,68.70
2017-08-22T01:08:13.433Z,70.70
2017-08-22T01:10:41.009Z,69.50
2017-08-22T01:13:08.549Z,69.90
2017-08-22T01:15:36.128Z,69.90
2017-08-22T01:18:03.672Z,70.00
2017-08-22T01:20:31.247Z,69.90
2017-08-22T01:22:58.794Z,69.50
2017-08-22T01:25:26.426Z,69.10
2017-08-22T01:27:53.965Z,69.40
2017-08-22T01:30:21.640Z,68.60
2017-08-22T01:32:49.204Z,69.40
2017-08-22T01:35:16.852Z,68.90
2017-08-22T01:37:44.513Z,68.90
2017-08-22T01:40:12.188Z,68.70
2017-08-22T01:42:39.841Z,69.10
2017-08-22T01:45:07.513Z,69.90
2017-08-22T01:47:35.073Z,69.20
2017-08-22T01:50:02.739Z,69.60
2017-08-22T01:52:30.264Z,71.40
2017-08-22T01:54:57.927Z,71.20
2017-08-22T01:57:25.535Z,71.60
2017-08-22T01:59:53.198Z,71.20
2017-08-22T02:02:20.757Z,72.50
2017-08-22T02:04:48.350Z,72.70
2017-08-22T02:07:15.930Z,72.30
2017-08-22T02:09:43.556Z,72.20
2017-08-22T02:12:11.226Z,71.90
2017-08-22T02:14:38.861Z,71.50
2017-08-22T02:17:06.544Z,71.10
2017-08-22T02:19:34.881Z,70.10
2017-08-22T02:22:02.554Z,69.90
2017-08-22T02:24:30.117Z,70.00
2017-08-22T02:26:57.780Z,70.50
2017-08-22T02:29:25.399Z,71.00
2017-08-22T02:31:53.020Z,70.70
2017-08-22T02:34:20.606Z,70.90
2017-08-22T02:36:48.180Z,71.80
2017-08-22T02:39:15.786Z,70.90
2017-08-22T02:41:43.606Z,70.30
2017-08-22T02:44:11.225Z,70.20
2017-08-22T02:46:38.781Z,70.00
2017-08-22T02:49:06.461Z,70.00
2017-08-22T02:51:34.569Z,69.90
2017-08-22T02:54:02.199Z,70.20
2017-08-22T02:56:29.748Z,70.40
2017-08-22T02:58:57.324Z,71.10
2017-08-22T03:01:24.895Z,71.60
2017-08-22T03:03:52.472Z,71.90
2017-08-22T03:06:20.026Z,71.80
2017-08-22T03:08:47.596Z,71.80
2017-08-22T03:11:15.187Z,73.40
2017-08-22T03:13:42.778Z,73.00
2017-08-22T03:16:10.315Z,74.60
2017-08-22T03:18:37.973Z,73.30
2017-08-22T03:21:05.560Z,73.10
2017-08-22T03:23:33.206Z,72.30
2017-08-22T03:26:00.874Z,71.50
2017-08-22T03:28:28.493Z,71.90
2017-08-22T03:30:56.107Z,73.40
2017-08-22T03:33:23.687Z,73.30
2017-08-22T03:35:51.309Z,72.40
2017-08-22T03:38:18.845Z,72.60
2017-08-22T03:40:46.420Z,72.80
2017-08-22T03:43:13.958Z,71.30
2017-08-22T03:45:41.706Z,70.80
2017-08-22T03:48:09.315Z,71.70
2017-08-22T03:50:37.157Z,70.80
2017-08-22T03:53:04.971Z,71.40
2017-08-22T03:55:32.612Z,71.40
2017-08-22T03:58:00.321Z,70.80
2017-08-22T04:00:28.093Z,70.60
2017-08-22T04:02:55.843Z,70.90
2017-08-22T04:05:23.523Z,71.00
2017-08-22T04:07:51.138Z,71.10
2017-08-22T04:10:18.727Z,71.10
2017-08-22T04:12:46.340Z,71.50
2017-08-22T04:15:14.106Z,72.00
2017-08-22T04:17:41.735Z,72.10
2017-08-22T04:20:09.681Z,72.60
2017-08-22T04:22:37.292Z,72.20
2017-08-22T04:25:04.876Z,72.60
2017-08-22T04:27:32.489Z,72.70
2017-08-22T04:30:00.176Z,72.90
2017-08-22T04:32:27.795Z,72.70
2017-08-22T04:34:55.464Z,71.90
2017-08-22T04:37:23.065Z,72.50
2017-08-22T04:39:50.798Z,73.00
2017-08-22T04:42:18.414Z,72.90
2017-08-22T04:44:46.062Z,73.60
2017-08-22T04:47:13.661Z,73.40
2017-08-22T04:49:41.348Z,73.80
2017-08-22T04:52:08.965Z,73.90
2017-08-22T04:54:36.632Z,73.20
2017-08-22T04:57:04.293Z,73.30
2017-08-22T04:59:31.979Z,74.60
2017-08-22T05:01:59.590Z,74.60
2017-08-22T05:04:27.199Z,75.40
2017-08-22T05:06:54.861Z,74.80
2017-08-22T05:09:22.448Z,74.20
2017-08-22T05:11:50.078Z,74.90
2017-08-22T05:14:17.677Z,74.10
2017-08-22T05:16:45.294Z,72.00
2017-08-22T05:19:12.892Z,71.80
2017-08-22T05:21:40.547Z,71.60
2017-08-22T05:24:08.116Z,72.10
2017-08-22T05:26:35.720Z,71.70
2017-08-22T05:29:03.336Z,71.60
2017-08-22T05:31:30.996Z,71.40
2017-08-22T05:33:58.606Z,71.60
2017-08-22T05:36:26.269Z,72.30
2017-08-22T05:38:53.889Z,71.00
2017-08-22T05:41:21.579Z,71.60
2017-08-22T05:43:49.196Z,72.00
2017-08-22T05:46:16.795Z,72.00
2017-08-22T05:48:44.471Z,72.00
2017-08-22T05:51:12.101Z,72.60
2017-08-22T05:53:39.754Z,73.10
2017-08-22T05:56:07.371Z,72.50
2017-08-22T05:58:35.035Z,72.60
2017-08-22T06:01:02.644Z,72.80
2017-08-22T06:03:30.303Z,72.60
2017-08-22T06:05:57.926Z,72.70
2017-08-22T06:08:25.588Z,71.70
2017-08-22T06:10:53.206Z,71.40
2017-08-22T06:13:20.851Z,71.80
2017-08-22T06:15:48.455Z,71.90
2017-08-22T06:18:16.138Z,71.30
2017-08-22T06:20:43.756Z,71.60
2017-08-22T06:23:11.407Z,71.90
2017-08-22T06:25:39.896Z,71.10
2017-08-22T06:28:07.598Z,71.10
2017-08-22T06:30:35.229Z,70.80
2017-08-22T06:33:02.867Z,70.50
2017-08-22T06:35:30.587Z,70.40
2017-08-22T06:37:58.346Z,70.00
2017-08-22T06:40:25.917Z,69.20
2017-08-22T06:42:53.622Z,67.80
2017-08-22T06:45:21.234Z,65.70
2017-08-22T06:47:48.815Z,66.00
2017-08-22T06:50:16.452Z,66.10
2017-08-22T06:52:44.535Z,67.50
2017-08-22T06:55:12.197Z,68.00
2017-08-22T06:57:39.820Z,67.70
2017-08-22T07:00:07.498Z,67.60
2017-08-22T07:02:35.065Z,68.60
2017-08-22T07:05:02.701Z,66.70
2017-08-22T07:07:30.267Z,65.00
2017-08-22T07:09:57.959Z,63.60
2017-08-22T07:12:25.515Z,62.60
2017-08-22T07:14:53.186Z,62.10
2017-08-22T07:17:20.744Z,61.80
2017-08-22T07:19:48.324Z,61.80
2017-08-22T07:22:15.967Z,62.50
2017-08-22T07:24:43.544Z,60.80
2017-08-22T07:27:11.132Z,61.20
2017-08-22T07:29:38.712Z,61.20
2017-08-22T07:32:06.364Z,61.40
2017-08-22T07:34:33.969Z,61.30
2017-08-22T07:37:01.505Z,60.00
2017-08-22T07:39:29.102Z,60.10
2017-08-22T07:41:56.654Z,60.60
2017-08-22T07:44:24.231Z,60.90
2017-08-22T07:46:51.779Z,60.90
2017-08-22T07:49:19.461Z,61.50
2017-08-22T07:51:47.055Z,61.90
2017-08-22T07:54:14.669Z,60.20
2017-08-22T07:56:42.342Z,60.40
2017-08-22T07:59:10.022Z,60.80
2017-08-22T08:01:37.588Z,60.30
2017-08-22T08:04:05.197Z,58.40
2017-08-22T08:06:32.871Z,58.60
2017-08-22T08:09:00.490Z,59.30
2017-08-22T08:11:28.223Z,59.50
2017-08-22T08:13:55.848Z,58.60
2017-08-22T08:16:23.493Z,58.10
2017-08-22T08:18:51.073Z,58.10
2017-08-22T08:21:18.733Z,58.40
2017-08-22T08:23:46.369Z,58.50
2017-08-22T08:26:14.044Z,57.90
2017-08-22T08:28:41.694Z,57.90
2017-08-22T08:31:09.321Z,58.00
2017-08-22T08:33:36.934Z,57.80
2017-08-22T08:36:04.578Z,58.00
2017-08-22T08:38:32.120Z,58.60
2017-08-22T08:40:59.792Z,58.40
2017-08-22T08:43:27.394Z,58.30
2017-08-22T08:45:54.990Z,58.10
2017-08-22T08:48:22.583Z,58.40
2017-08-22T08:50:50.196Z,58.80
2017-08-22T08:53:17.833Z,58.30
2017-08-22T08:55:45.521Z,58.60
2017-08-22T08:58:13.130Z,58.50
2017-08-22T09:00:40.717Z,58.50
2017-08-22T09:03:08.294Z,58.70
2017-08-22T09:05:35.989Z,58.00
2017-08-22T09:08:03.603Z,59.30
2017-08-22T09:10:31.349Z,58.10
2017-08-22T09:12:58.896Z,58.00
2017-08-22T09:15:26.471Z,57.70
2017-08-22T09:17:54.087Z,58.10
2017-08-22T09:20:21.687Z,57.80
2017-08-22T09:22:49.248Z,57.90
2017-08-22T09:25:16.827Z,58.10
2017-08-22T09:27:44.373Z,57.80
2017-08-22T09:30:11.952Z,56.80
2017-08-22T09:32:39.513Z,56.00
2017-08-22T09:35:07.221Z,56.20
2017-08-22T09:37:34.841Z,56.50
2017-08-22T09:40:02.526Z,56.00
2017-08-22T09:42:30.109Z,54.20
2017-08-22T09:44:57.720Z,55.50
2017-08-22T09:47:25.340Z,55.10
2017-08-22T09:49:53.080Z,53.50
2017-08-22T09:52:20.624Z,53.40
2017-08-22T09:54:48.205Z,53.50
2017-08-22T09:57:15.836Z,53.40
2017-08-22T09:59:43.508Z,52.60
2017-08-22T10:02:11.136Z,52.80
2017-08-22T10:04:38.803Z,52.40
2017-08-22T10:07:06.738Z,52.50
2017-08-22T10:09:34.350Z,52.40
2017-08-22T10:12:01.979Z,52.10
2017-08-22T10:14:29.587Z,52.30
2017-08-22T10:17:29.458Z,50.40
2017-08-22T10:19:57.124Z,51.50
2017-08-22T10:22:24.741Z,51.40
2017-08-22T10:24:52.324Z,52.00
2017-08-22T10:27:20.200Z,51.20
2017-08-22T10:29:47.805Z,50.00
2017-08-22T10:32:15.443Z,49.70
2017-08-22T10:34:43.070Z,50.60
2017-08-22T10:37:10.682Z,49.20
2017-08-22T10:39:38.383Z,48.40
2017-08-22T10:42:06.052Z,50.40
2017-08-22T10:44:33.648Z,49.00
2017-08-22T10:47:01.260Z,48.30
2017-08-22T10:49:28.866Z,50.10
2017-08-22T10:51:56.488Z,49.60
2017-08-22T10:54:24.094Z,48.40
2017-08-22T10:56:51.681Z,46.50
2017-08-22T10:59:19.288Z,47.10
2017-08-22T11:01:46.864Z,47.90
2017-08-22T11:04:14.545Z,46.80
2017-08-22T11:06:42.175Z,45.50
2017-08-22T11:09:09.814Z,45.40
2017-08-22T11:11:37.495Z,47.20
2017-08-22T11:14:05.166Z,46.00
2017-08-22T11:16:32.796Z,46.60
2017-08-22T11:19:00.465Z,46.40
2017-08-22T11:21:28.075Z,45.90
2017-08-22T11:23:55.739Z,46.30
2017-08-22T11:26:23.761Z,47.30
2017-08-22T11:28:51.423Z,46.50
2017-08-22T11:31:19.022Z,47.80
2017-08-22T11:33:46.701Z,46.20
2017-08-22T11:36:14.324Z,45.40
2017-08-22T11:38:41.940Z,46.90
2017-08-22T11:41:09.613Z,46.70
2017-08-22T11:43:37.293Z,46.70
2017-08-22T11:46:04.943Z,46.30
2017-08-22T11:48:32.600Z,45.60
2017-08-22T11:51:00.211Z,46.60
2017-08-22T11:53:27.873Z,45.20
2017-08-22T11:55:55.474Z,45.30
2017-08-22T11:58:23.133Z,45.90
2017-08-22T12:00:50.748Z,44.70
2017-08-22T12:03:18.387Z,44.90
2017-08-22T12:05:46.001Z,45.90
2017-08-22T12:08:13.657Z,44.80
2017-08-22T12:10:41.272Z,45.20
2017-08-22T12:13:08.995Z,45.00
2017-08-22T12:15:36.618Z,45.20
2017-08-22T12:18:04.261Z,44.90
2017-08-22T12:20:31.911Z,45.70
2017-08-22T12:22:59.555Z,45.30
2017-08-22T12:25:27.206Z,44.10
2017-08-22T12:27:54.820Z,44.20
2017-08-22T12:30:22.398Z,45.30
2017-08-22T12:32:49.949Z,44.60
2017-08-22T12:35:17.519Z,44.20
2017-08-22T12:37:45.134Z,45.80
2017-08-22T12:40:12.749Z,44.60
2017-08-22T12:42:40.370Z,45.40
2017-08-22T12:45:07.953Z,46.10
2017-08-22T12:47:35.512Z,44.90
2017-08-22T12:50:03.199Z,45.40
2017-08-22T12:52:30.822Z,44.50
2017-08-22T12:54:58.493Z,44.40
2017-08-22T12:57:26.046Z,43.60
2017-08-22T12:59:53.665Z,44.40
2017-08-22T13:02:21.252Z,44.20
2017-08-22T13:04:48.911Z,45.10
2017-08-22T13:07:16.440Z,44.10
2017-08-22T13:09:44.078Z,44.30
2017-08-22T13:12:11.697Z,42.40
2017-08-22T13:14:39.258Z,43.50
2017-08-22T13:17:06.905Z,44.80
2017-08-22T13:19:34.458Z,42.60
2017-08-22T13:22:02.046Z,46.10
2017-08-22T13:24:29.621Z,43.80
2017-08-22T13:26:57.199Z,42.70
2017-08-22T13:29:24.737Z,43.90
2017-08-22T13:31:52.330Z,44.90
2017-08-22T13:34:19.907Z,45.50
2017-08-22T13:36:47.488Z,44.60
2017-08-22T13:39:15.053Z,43.10
2017-08-22T13:41:42.672Z,43.50
2017-08-22T13:44:10.309Z,43.80
2017-08-22T13:46:37.954Z,43.40
2017-08-22T13:49:05.631Z,45.20
2017-08-22T13:51:33.276Z,45.40
2017-08-22T13:54:00.934Z,43.10
2017-08-22T13:56:28.535Z,46.20
2017-08-22T13:58:56.198Z,45.90
2017-08-22T14:01:24.164Z,45.20
2017-08-22T14:03:51.830Z,46.70
2017-08-22T14:06:19.437Z,45.30
2017-08-22T14:08:47.124Z,46.40
2017-08-22T14:11:14.732Z,44.50
2017-08-22T14:13:42.363Z,42.00
2017-08-22T14:16:09.971Z,44.40
2017-08-22T14:18:37.631Z,44.20
2017-08-22T14:21:05.287Z,44.20
2017-08-22T14:23:32.946Z,44.60
2017-08-22T14:26:00.633Z,45.00
2017-08-22T14:28:28.341Z,45.20
2017-08-22T14:30:55.946Z,44.00
2017-08-22T14:33:23.620Z,44.80
2017-08-22T14:35:51.232Z,45.70
2017-08-22T14:38:18.909Z,44.40
2017-08-22T14:40:46.535Z,45.30
2017-08-22T14:43:14.118Z,45.20
2017-08-22T14:45:41.756Z,45.10
2017-08-22T14:48:09.378Z,42.80
2017-08-22T14:50:37.017Z,44.70
2017-08-22T14:53:04.682Z,45.80
2017-08-22T14:55:32.270Z,46.30
2017-08-22T14:57:59.844Z,45.10
2017-08-22T15:00:27.420Z,44.20
2017-08-22T15:02:55.100Z,43.40
2017-08-22T15:05:22.730Z,40.30
2017-08-22T15:07:50.317Z,40.40
2017-08-22T15:10:17.892Z,38.00
2017-08-22T15:12:45.553Z,37.70
2017-08-22T15:15:13.164Z,36.30
2017-08-22T15:17:40.744Z,35.90
2017-08-22T15:20:08.316Z,35.60
2017-08-22T15:22:36.021Z,34.80
2017-08-22T15:25:03.574Z,34.00
2017-08-22T15:27:31.206Z,34.50
2017-08-22T15:29:58.814Z,36.00
2017-08-22T15:32:26.438Z,34.40
2017-08-22T15:34:54.090Z,36.30
2017-08-22T15:37:21.696Z,37.20
2017-08-22T15:39:49.380Z,39.30
2017-08-22T15:42:17.007Z,40.10
2017-08-22T15:44:44.785Z,40.40
2017-08-22T15:47:12.440Z,42.60
2017-08-22T15:49:40.122Z,42.30
2017-08-22T15:52:07.689Z,42.70
2017-08-22T15:54:35.415Z,44.30
2017-08-22T15:57:03.804Z,45.80
2017-08-22T15:59:31.400Z,45.70
2017-08-22T16:01:59.570Z,45.90
2017-08-22T16:04:27.146Z,46.90
2017-08-22T16:06:54.760Z,47.60
2017-08-22T16:09:22.331Z,48.60
2017-08-22T16:11:49.863Z,49.70
2017-08-22T16:14:17.451Z,50.90
2017-08-22T16:16:45.070Z,51.20
2017-08-22T16:19:12.736Z,51.20
2017-08-22T16:21:40.281Z,51.40
2017-08-22T16:24:07.962Z,51.20
2017-08-22T16:26:35.593Z,52.10
2017-08-22T16:29:03.313Z,53.10
2017-08-22T16:31:30.902Z,52.90
2017-08-22T16:33:58.437Z,52.70
2017-08-22T16:36:26.014Z,53.90
2017-08-22T16:38:53.696Z,52.90
2017-08-22T16:41:21.306Z,52.60
2017-08-22T16:43:49.062Z,52.20
2017-08-22T16:46:16.615Z,53.80
2017-08-22T16:48:44.306Z,54.20
2017-08-22T16:51:11.937Z,54.30
2017-08-22T16:53:39.505Z,54.30
2017-08-22T16:56:07.164Z,55.70
2017-08-22T16:58:34.819Z,56.00
2017-08-22T17:01:02.479Z,56.50
2017-08-22T17:03:30.086Z,56.40
2017-08-22T17:05:57.746Z,56.70
2017-08-22T17:08:25.293Z,57.70
2017-08-22T17:10:53.205Z,58.50
2017-08-22T17:13:21.733Z,59.60
2017-08-22T17:15:49.674Z,60.80
2017-08-22T17:18:17.212Z,59.70
2017-08-22T17:20:44.841Z,59.60
2017-08-22T17:23:12.517Z,62.00
2017-08-22T17:25:40.138Z,61.20
2017-08-22T17:28:07.716Z,60.90
2017-08-22T17:30:35.360Z,61.10
2017-08-22T17:33:03.044Z,61.70
2017-08-22T17:35:30.665Z,62.20
2017-08-22T17:37:58.257Z,61.90
2017-08-22T17:40:25.793Z,61.40
2017-08-22T17:42:53.461Z,63.10
2017-08-22T17:45:21.051Z,63.40
2017-08-22T17:47:48.711Z,61.90
2017-08-22T17:50:16.336Z,62.90
2017-08-22T17:52:44.004Z,63.60
2017-08-22T17:55:11.600Z,63.30
2017-08-22T17:57:39.235Z,62.70
2017-08-22T18:00:06.873Z,62.70
2017-08-22T18:02:34.617Z,63.10
2017-08-22T18:05:02.215Z,64.20
2017-08-22T18:07:29.896Z,63.80
2017-08-22T18:09:57.465Z,63.70
2017-08-22T18:12:25.110Z,63.70
2017-08-22T18:14:52.699Z,64.30
2017-08-22T18:17:20.512Z,64.70
2017-08-22T18:19:48.059Z,64.90
2017-08-22T18:22:15.723Z,65.10
2017-08-22T18:24:43.377Z,65.40
2017-08-22T18:27:11.005Z,65.30
2017-08-22T18:29:38.633Z,65.00
2017-08-22T18:32:06.326Z,65.80
2017-08-22T18:34:33.945Z,66.50
2017-08-22T18:37:01.566Z,66.70
2017-08-22T18:39:29.130Z,66.80
2017-08-22T18:41:56.730Z,67.30
2017-08-22T18:44:24.608Z,67.30
2017-08-22T18:46:52.208Z,67.60
2017-08-22T18:49:19.889Z,68.60
2017-08-22T18:51:47.485Z,69.20
2017-08-22T18:54:15.139Z,69.80
2017-08-22T18:56:42.753Z,69.90
2017-08-22T18:59:10.413Z,70.10
2017-08-22T19:01:38.032Z,70.20
2017-08-22T19:04:05.746Z,71.00
2017-08-22T19:06:33.388Z,70.90
2017-08-22T19:09:00.991Z,71.60
2017-08-22T19:11:28.625Z,72.10
2017-08-22T19:13:56.161Z,72.10
2017-08-22T19:16:23.816Z,71.80
2017-08-22T19:18:51.437Z,72.20
2017-08-22T19:21:19.030Z,71.60
2017-08-22T19:23:46.643Z,71.90
2017-08-22T19:26:14.305Z,72.50
2017-08-22T19:28:41.850Z,72.30
2017-08-22T19:31:09.528Z,73.30
2017-08-22T19:33:37.158Z,73.60
2017-08-22T19:36:04.869Z,73.40
2017-08-22T19:38:32.482Z,73.40
2017-08-22T19:41:00.152Z,73.40
2017-08-22T19:43:27.774Z,73.20
2017-08-22T19:45:55.439Z,73.50
2017-08-22T19:48:22.990Z,74.00
2017-08-22T19:50:50.599Z,74.50
2017-08-22T19:53:18.191Z,74.60
2017-08-22T19:55:45.801Z,74.40
2017-08-22T19:58:13.403Z,74.90
2017-08-22T20:00:41.064Z,75.20
2017-08-22T20:03:08.695Z,75.40
2017-08-22T20:05:36.350Z,75.30
2017-08-22T20:08:04.066Z,75.30
2017-08-22T20:10:31.679Z,74.90
2017-08-22T20:12:59.345Z,74.80
2017-08-22T20:15:26.960Z,74.60
2017-08-22T20:17:54.640Z,74.80
2017-08-22T20:20:22.284Z,75.20
2017-08-22T20:22:50.932Z,75.40
2017-08-22T20:25:18.464Z,75.20
2017-08-22T20:27:46.124Z,75.80
2017-08-22T20:30:13.741Z,75.90
2017-08-22T20:32:41.367Z,76.10
2017-08-22T20:35:08.967Z,76.50
2017-08-22T20:37:37.070Z,76.00
2017-08-22T20:40:04.652Z,76.00
2017-08-22T20:42:32.276Z,76.70
2017-08-22T20:44:59.838Z,76.70
2017-08-22T20:47:27.405Z,77.10
2017-08-22T20:49:55.013Z,76.60
2017-08-22T20:52:22.645Z,76.90
2017-08-22T20:54:50.378Z,76.90
2017-08-22T20:57:17.985Z,76.40
2017-08-22T20:59:45.684Z,76.40
2017-08-22T21:02:13.361Z,76.50
2017-08-22T21:04:40.976Z,76.60
2017-08-22T21:07:08.608Z,76.30
2017-08-22T21:09:36.287Z,76.20
2017-08-22T21:12:03.923Z,76.00
2017-08-22T21:14:31.578Z,76.30
2017-08-22T21:16:59.190Z,76.30
2017-08-22T21:19:26.871Z,76.20
2017-08-22T21:21:54.863Z,75.60
2017-08-22T21:24:22.537Z,75.60
2017-08-22T21:26:50.207Z,75.50
2017-08-22T21:29:17.882Z,76.40
2017-08-22T21:31:45.445Z,77.40
2017-08-22T21:34:13.108Z,77.90
2017-08-22T21:36:40.712Z,78.40
2017-08-22T21:39:08.379Z,78.40
2017-08-22T21:41:36.013Z,78.10
2017-08-22T21:44:03.690Z,78.40
2017-08-22T21:46:31.296Z,77.80
2017-08-22T21:48:58.960Z,78.10
2017-08-22T21:51:26.608Z,78.30
2017-08-22T21:53:54.220Z,78.40
2017-08-22T21:56:21.850Z,78.00
2017-08-22T21:58:49.706Z,78.10
2017-08-22T22:01:17.306Z,78.30
2017-08-22T22:03:44.992Z,78.30
2017-08-22T22:06:12.620Z,78.50
2017-08-22T22:08:40.449Z,78.70
2017-08-22T22:11:08.075Z,78.80
2017-08-22T22:13:35.769Z,79.40
2017-08-22T22:16:03.450Z,79.50
2017-08-22T22:18:31.271Z,79.70
2017-08-22T22:20:58.993Z,79.90
2017-08-22T22:23:26.719Z,80.00
2017-08-22T22:25:54.431Z,80.00
2017-08-22T22:28:22.042Z,80.00
2017-08-22T22:30:49.649Z,80.10
2017-08-22T22:33:17.213Z,80.00
2017-08-22T22:35:44.796Z,80.40
2017-08-22T22:38:12.391Z,80.60
2017-08-22T22:40:39.969Z,80.30
2017-08-22T22:43:07.552Z,80.10
2017-08-22T22:45:35.209Z,80.40
2017-08-22T22:48:02.791Z,80.30
2017-08-22T22:50:30.399Z,80.80
2017-08-22T22:52:57.948Z,80.70
2017-08-22T22:55:25.495Z,81.00
2017-08-22T22:57:53.101Z,80.70
2017-08-22T23:00:20.637Z,81.20
2017-08-22T23:02:48.234Z,81.40
2017-08-22T23:05:15.798Z,82.10
2017-08-22T23:07:43.373Z,82.80
2017-08-22T23:10:10.916Z,82.70
2017-08-22T23:12:38.513Z,82.40
2017-08-22T23:15:06.065Z,82.10
2017-08-22T23:17:33.700Z,81.70
2017-08-22T23:20:01.233Z,81.50
2017-08-22T23:22:28.860Z,81.50
2017-08-22T23:24:56.417Z,81.60
2017-08-22T23:27:23.978Z,81.70
2017-08-22T23:29:51.591Z,81.90
2017-08-22T23:32:19.132Z,81.80
2017-08-22T23:34:46.705Z,81.60
2017-08-22T23:37:14.328Z,81.50
2017-08-22T23:39:41.947Z,81.60
2017-08-22T23:42:09.536Z,81.50
2017-08-22T23:44:37.160Z,81.60
2017-08-22T23:47:04.730Z,81.80
2017-08-22T23:49:32.355Z,83.00
2017-08-22T23:51:59.948Z,83.00
2017-08-22T23:54:27.545Z,83.50
2017-08-22T23:56:55.148Z,83.40
2017-08-22T23:59:22.710Z,83.50
